createdAt,value
2022-09-14T00:01:24.694Z,98833.28
2022-09-14T00:03:54.757Z,98827.19
2022-09-14T00:06:26.120Z,98829.72
2022-09-14T00:09:04.607Z,98825.34
2022-09-14T00:11:39.647Z,98825.34
2022-09-14T00:14:08.263Z,98738.69
2022-09-14T00:16:42.963Z,98799.22
2022-09-14T00:19:17.842Z,98821.41
2022-09-14T00:21:59.084Z,98762.63
2022-09-14T00:24:32.056Z,98806.84
2022-09-14T00:27:03.195Z,98782.09
2022-09-14T00:29:35.713Z,98765.88
2022-09-14T00:32:07.832Z,98790.34
2022-09-14T00:34:38.816Z,98783.81
2022-09-14T00:37:12.559Z,98795.72
2022-09-14T00:39:45.139Z,98782.22
2022-09-14T00:42:20.218Z,98774.41
2022-09-14T00:45:08.441Z,98806.16
2022-09-14T00:47:43.467Z,98794.94
2022-09-14T00:50:16.946Z,98767.66
2022-09-14T00:52:57.193Z,98702.28
2022-09-14T00:55:27.273Z,98785.66
2022-09-14T00:57:56.771Z,98791.63
2022-09-14T01:00:27.399Z,98783.91
2022-09-14T01:02:56.027Z,98734.38
2022-09-14T01:05:49.371Z,98757.34
2022-09-14T01:08:37.707Z,98750.53
2022-09-14T01:11:25.071Z,98750.38
2022-09-14T01:13:58.716Z,98774.16
2022-09-14T01:16:39.213Z,98775.94
2022-09-14T01:19:15.113Z,98701.78
2022-09-14T01:21:46.858Z,98743.53
2022-09-14T01:24:27.840Z,98754.53
2022-09-14T01:27:34.355Z,98754.47
2022-09-14T01:30:13.792Z,98751.72
2022-09-14T01:32:49.289Z,98625.69
2022-09-14T01:35:25.250Z,98724.31
2022-09-14T01:37:58.220Z,98698.78
2022-09-14T01:40:32.859Z,98756.59
2022-09-14T01:43:05.508Z,98752.22
2022-09-14T01:45:38.657Z,98748.81
2022-09-14T01:48:12.075Z,98746.94
2022-09-14T01:50:44.283Z,98747.88
2022-09-14T01:53:16.122Z,98744.47
2022-09-14T01:55:56.769Z,98713.00
2022-09-14T01:58:31.539Z,98666.88
2022-09-14T02:01:04.134Z,98734.09
2022-09-14T02:03:41.641Z,98711.97
2022-09-14T02:06:19.891Z,98689.03
2022-09-14T02:08:52.873Z,98669.56
2022-09-14T02:11:26.613Z,98715.38
2022-09-14T02:13:58.353Z,98630.50
2022-09-14T02:16:27.086Z,98635.69
2022-09-14T02:18:59.217Z,98692.56
2022-09-14T02:21:33.351Z,98724.91
2022-09-14T02:24:13.812Z,98720.56
2022-09-14T02:26:44.306Z,98718.81
2022-09-14T02:29:16.722Z,98717.84
2022-09-14T02:32:01.683Z,98696.72
2022-09-14T02:34:32.096Z,98711.00
2022-09-14T02:37:12.211Z,98683.66
2022-09-14T02:39:50.235Z,98698.06
2022-09-14T02:42:26.284Z,98685.88
2022-09-14T02:45:11.707Z,98706.34
2022-09-14T02:47:55.656Z,98651.75
2022-09-14T02:50:29.885Z,98694.03
2022-09-14T02:53:06.421Z,98693.16
2022-09-14T02:55:40.652Z,98659.41
2022-09-14T02:58:12.872Z,98683.13
2022-09-14T03:00:53.077Z,98689.91
2022-09-14T03:03:23.324Z,98641.41
2022-09-14T03:05:51.668Z,98690.69
2022-09-14T03:08:25.742Z,98688.97
2022-09-14T03:10:54.336Z,98653.28
2022-09-14T03:13:25.410Z,98626.91
2022-09-14T03:15:58.955Z,98676.03
2022-09-14T03:18:27.368Z,98673.34
2022-09-14T03:21:04.327Z,98623.00
2022-09-14T03:23:32.791Z,98672.25
2022-09-14T03:26:15.917Z,98632.25
2022-09-14T03:28:44.501Z,98669.88
2022-09-14T03:31:19.851Z,98529.59
2022-09-14T03:33:50.997Z,98614.63
2022-09-14T03:36:20.974Z,98647.69
2022-09-14T03:38:55.581Z,98581.31
2022-09-14T03:41:25.962Z,98636.56
2022-09-14T03:43:56.376Z,98659.44
2022-09-14T03:46:26.698Z,98652.44
2022-09-14T03:48:55.995Z,98658.38
2022-09-14T03:51:25.071Z,98655.13
2022-09-14T03:53:53.806Z,98627.06
2022-09-14T03:56:33.537Z,98658.47
2022-09-14T03:59:09.817Z,98667.88
2022-09-14T04:01:42.596Z,98669.44
2022-09-14T04:04:13.548Z,98645.38
2022-09-14T04:06:48.483Z,98645.25
2022-09-14T04:09:19.101Z,98641.91
2022-09-14T04:11:52.098Z,98629.75
2022-09-14T04:14:20.526Z,98654.47
2022-09-14T04:16:50.330Z,98623.88
2022-09-14T04:19:23.400Z,98625.41
2022-09-14T04:21:52.000Z,98627.84
2022-09-14T04:24:27.726Z,98652.50
2022-09-14T04:27:03.493Z,98656.88
2022-09-14T04:29:31.871Z,98654.22
2022-09-14T04:32:01.782Z,98650.75
2022-09-14T04:34:30.167Z,98648.09
2022-09-14T04:37:04.537Z,98653.28
2022-09-14T04:39:33.917Z,98547.72
2022-09-14T04:42:06.537Z,98646.06
2022-09-14T04:44:37.544Z,98650.13
2022-09-14T04:47:07.840Z,98624.56
2022-09-14T04:49:37.256Z,98651.66
2022-09-14T04:52:09.727Z,98655.84
2022-09-14T04:54:38.116Z,98653.22
2022-09-14T04:57:06.860Z,98635.25
2022-09-14T04:59:36.899Z,98624.13
2022-09-14T05:02:09.741Z,98599.44
2022-09-14T05:04:42.722Z,98635.72
2022-09-14T05:07:13.274Z,98659.63
2022-09-14T05:09:42.126Z,98651.03
2022-09-14T05:12:13.760Z,98656.75
2022-09-14T05:14:44.768Z,98604.81
2022-09-14T05:17:14.538Z,98646.19
2022-09-14T05:19:47.199Z,98641.75
2022-09-14T05:22:18.160Z,98641.63
2022-09-14T05:24:48.327Z,98651.13
2022-09-14T05:27:18.781Z,98608.69
2022-09-14T05:29:49.207Z,98659.69
2022-09-14T05:32:21.153Z,98618.47
2022-09-14T05:34:53.529Z,98651.19
2022-09-14T05:37:21.996Z,98604.22
2022-09-14T05:39:51.993Z,98659.38
2022-09-14T05:42:20.756Z,98629.09
2022-09-14T05:44:50.407Z,98632.06
2022-09-14T05:47:25.289Z,98586.28
2022-09-14T05:49:53.692Z,98649.00
2022-09-14T05:52:22.013Z,98636.38
2022-09-14T05:54:59.303Z,98628.22
2022-09-14T05:57:29.886Z,98642.47
2022-09-14T06:00:00.409Z,98646.78
2022-09-14T06:02:33.150Z,98597.63
2022-09-14T06:05:06.172Z,98646.19
2022-09-14T06:07:36.843Z,98625.28
2022-09-14T06:10:08.769Z,98576.41
2022-09-14T06:12:37.114Z,98612.91
2022-09-14T06:15:16.958Z,98630.94
2022-09-14T06:17:48.939Z,98641.88
2022-09-14T06:20:21.853Z,98634.44
2022-09-14T06:22:54.012Z,98636.22
2022-09-14T06:25:22.424Z,98632.59
2022-09-14T06:27:50.806Z,98641.56
2022-09-14T06:30:19.270Z,98635.88
2022-09-14T06:32:49.058Z,98641.66
2022-09-14T06:35:19.979Z,98606.00
2022-09-14T06:37:50.907Z,98642.50
2022-09-14T06:40:19.485Z,98634.59
2022-09-14T06:42:47.924Z,98580.19
2022-09-14T06:45:18.596Z,98635.50
2022-09-14T06:47:51.688Z,98617.63
2022-09-14T06:50:20.103Z,98632.00
2022-09-14T06:52:49.967Z,98631.44
2022-09-14T06:55:18.714Z,98592.28
2022-09-14T06:57:49.493Z,98637.31
2022-09-14T07:00:20.164Z,98629.38
2022-09-14T07:02:55.578Z,98602.09
2022-09-14T07:05:29.195Z,98631.31
2022-09-14T07:07:57.982Z,98630.47
2022-09-14T07:10:30.237Z,98610.31
2022-09-14T07:13:02.839Z,98626.88
2022-09-14T07:15:32.039Z,98587.78
2022-09-14T07:18:00.470Z,98627.56
2022-09-14T07:20:31.097Z,98608.66
2022-09-14T07:23:01.864Z,98625.56
2022-09-14T07:25:32.400Z,98621.16
2022-09-14T07:28:03.927Z,98605.97
2022-09-14T07:30:33.511Z,98614.84
2022-09-14T07:33:21.509Z,98613.88
2022-09-14T07:35:55.220Z,98611.63
2022-09-14T07:38:48.202Z,98580.25
2022-09-14T07:41:15.443Z,98603.88
2022-09-14T07:43:47.282Z,98585.34
2022-09-14T07:46:18.192Z,98588.75
2022-09-14T07:48:50.684Z,98605.03
2022-09-14T07:51:23.548Z,98588.38
2022-09-14T07:53:54.699Z,98606.66
2022-09-14T07:56:25.504Z,98573.63
2022-09-14T07:59:11.880Z,98608.16
2022-09-14T08:01:49.728Z,98597.22
2022-09-14T08:04:18.351Z,98601.84
2022-09-14T08:06:55.127Z,98595.94
2022-09-14T08:09:29.482Z,98601.28
2022-09-14T08:11:58.134Z,98602.72
2022-09-14T08:14:30.855Z,98608.06
2022-09-14T08:17:01.819Z,98609.63
2022-09-14T08:19:34.334Z,98606.59
2022-09-14T08:22:06.536Z,98501.97
2022-09-14T08:24:37.595Z,98602.25
2022-09-14T08:27:09.307Z,98601.84
2022-09-14T08:29:37.852Z,98599.75
2022-09-14T08:32:08.849Z,98585.69
2022-09-14T08:34:42.555Z,98595.84
2022-09-14T08:37:14.143Z,98584.91
2022-09-14T08:39:51.532Z,98503.25
2022-09-14T08:42:27.861Z,98537.00
2022-09-14T08:45:00.501Z,98541.69
2022-09-14T08:47:41.938Z,98504.03
2022-09-14T08:53:20.325Z,98539.38
2022-09-14T08:55:55.188Z,98565.53
2022-09-14T08:58:52.917Z,98575.66
2022-09-14T09:01:29.554Z,98531.22
2022-09-14T09:04:18.810Z,98490.34
2022-09-14T09:06:57.210Z,98584.50
2022-09-14T09:09:50.632Z,98565.09
2022-09-14T09:12:26.045Z,98512.56
2022-09-14T09:14:56.633Z,98554.56
2022-09-14T09:17:34.925Z,98589.78
2022-09-14T09:20:13.929Z,98524.78
2022-09-14T09:22:50.833Z,98583.16
2022-09-14T09:25:23.696Z,98488.78
2022-09-14T09:27:54.399Z,98580.97
2022-09-14T09:30:26.150Z,98533.59
2022-09-14T09:33:12.850Z,98461.13
2022-09-14T09:35:55.318Z,98517.09
2022-09-14T09:38:31.929Z,98571.44
2022-09-14T09:41:17.710Z,98570.81
2022-09-14T09:44:04.673Z,98555.13
2022-09-14T09:46:36.014Z,98580.56
2022-09-14T09:49:19.312Z,98558.56
2022-09-14T09:51:49.111Z,98550.03
2022-09-14T09:54:32.955Z,98577.84
2022-09-14T09:57:05.726Z,98567.69
2022-09-14T09:59:36.722Z,98521.34
2022-09-14T10:02:27.645Z,98582.78
2022-09-14T10:05:08.591Z,98524.47
2022-09-14T10:07:44.386Z,98563.16
2022-09-14T10:10:16.691Z,98549.16
2022-09-14T10:12:55.443Z,98546.09
2022-09-14T10:15:27.064Z,98542.25
2022-09-14T10:18:13.327Z,98499.19
2022-09-14T10:20:45.260Z,98495.44
2022-09-14T10:23:30.615Z,98466.03
2022-09-14T10:26:35.430Z,98559.44
2022-09-14T10:29:37.176Z,98572.91
2022-09-14T10:32:18.900Z,98562.28
2022-09-14T10:34:49.347Z,98573.25
2022-09-14T10:37:29.917Z,98580.16
2022-09-14T10:40:18.012Z,98576.31
2022-09-14T10:43:01.430Z,98576.72
2022-09-14T10:45:37.198Z,98487.81
2022-09-14T10:48:24.795Z,98570.59
2022-09-14T10:51:14.201Z,98523.19
2022-09-14T10:53:51.284Z,98527.69
2022-09-14T10:56:28.561Z,98520.44
2022-09-14T10:59:38.525Z,98451.94
2022-09-14T11:02:56.683Z,98568.75
2022-09-14T11:05:39.050Z,98559.72
2022-09-14T11:08:32.576Z,98522.34
2022-09-14T11:11:24.168Z,98522.44
2022-09-14T11:14:05.318Z,98541.59
2022-09-14T11:17:01.970Z,98563.28
2022-09-14T11:19:44.931Z,98538.81
2022-09-14T11:22:34.353Z,98547.91
2022-09-14T11:25:13.886Z,98569.50
2022-09-14T11:27:56.482Z,98416.09
2022-09-14T11:30:30.875Z,98508.50
2022-09-14T11:33:03.309Z,98528.03
2022-09-14T11:35:38.463Z,98533.75
2022-09-14T11:38:16.168Z,98551.19
2022-09-14T11:41:02.085Z,98562.88
2022-09-14T11:43:45.086Z,98565.34
2022-09-14T11:46:25.206Z,98502.59
2022-09-14T11:49:04.670Z,98561.50
2022-09-14T11:51:58.440Z,98474.59
2022-09-14T11:54:31.833Z,98487.56
2022-09-14T11:57:19.455Z,98564.88
2022-09-14T12:00:02.602Z,98563.00
2022-09-14T12:03:13.638Z,98503.84
2022-09-14T12:06:06.140Z,98539.72
2022-09-14T12:08:42.774Z,98532.72
2022-09-14T12:11:33.779Z,98541.97
2022-09-14T12:17:49.245Z,98531.28
2022-09-14T12:20:54.755Z,98554.13
2022-09-14T12:23:36.593Z,98557.94
2022-09-14T12:26:39.048Z,98490.38
2022-09-14T12:29:28.117Z,98496.84
2022-09-14T12:32:34.296Z,98551.03
2022-09-14T12:35:40.580Z,98546.31
2022-09-14T12:38:47.622Z,98550.22
2022-09-14T12:41:52.837Z,98448.03
2022-09-14T12:44:38.736Z,98525.97
2022-09-14T12:48:01.492Z,98540.88
2022-09-14T12:50:41.332Z,98536.41
2022-09-14T12:53:39.491Z,98444.94
2022-09-14T12:56:18.341Z,98535.09
2022-09-14T12:59:13.579Z,98536.09
2022-09-14T13:05:32.333Z,98448.56
2022-09-14T13:08:32.847Z,98415.16
2022-09-14T13:11:09.380Z,98525.22
2022-09-14T13:13:41.770Z,98535.84
2022-09-14T13:16:16.634Z,98537.75
2022-09-14T13:18:48.405Z,98522.53
2022-09-14T13:21:24.223Z,98501.66
2022-09-14T13:24:00.470Z,98515.34
2022-09-14T13:26:33.523Z,98535.88
2022-09-14T13:29:09.506Z,98466.94
2022-09-14T13:31:42.627Z,98532.38
2022-09-14T13:34:45.614Z,98486.88
2022-09-14T13:37:18.082Z,98519.09
2022-09-14T13:39:52.260Z,98532.38
2022-09-14T13:42:39.454Z,98455.16
2022-09-14T13:45:35.696Z,98488.50
2022-09-14T13:48:35.819Z,98481.09
2022-09-14T13:51:19.667Z,98508.41
2022-09-14T13:53:50.245Z,98516.88
2022-09-14T13:56:28.354Z,98521.22
2022-09-14T13:59:24.683Z,98519.53
2022-09-14T14:02:32.203Z,98478.56
2022-09-14T14:05:05.862Z,98513.22
2022-09-14T14:07:51.162Z,98471.16
2022-09-14T14:10:31.564Z,98487.44
2022-09-14T14:13:03.801Z,98450.28
2022-09-14T14:15:57.628Z,98475.09
2022-09-14T14:18:42.938Z,98516.63
2022-09-14T14:21:42.629Z,98504.09
2022-09-14T14:25:09.226Z,98492.44
2022-09-14T14:27:56.891Z,98472.16
2022-09-14T14:30:29.724Z,98517.31
2022-09-14T14:33:15.598Z,98445.25
2022-09-14T14:35:50.505Z,98529.19
2022-09-14T14:38:35.416Z,98507.44
2022-09-14T14:41:07.603Z,98533.25
2022-09-14T14:43:39.043Z,98525.06
2022-09-14T14:46:41.358Z,98486.50
2022-09-14T14:49:13.661Z,98516.84
2022-09-14T14:52:35.279Z,98408.47
2022-09-14T14:58:50.924Z,98401.09
2022-09-14T15:01:34.827Z,98490.88
2022-09-14T15:04:23.762Z,98510.47
2022-09-14T15:06:53.265Z,98478.84
2022-09-14T15:09:26.735Z,98502.84
2022-09-14T15:12:07.236Z,98438.81
2022-09-14T15:17:32.212Z,98505.78
2022-09-14T15:20:36.595Z,98492.91
2022-09-14T15:23:09.066Z,98519.91
2022-09-14T15:25:53.001Z,98518.50
2022-09-14T15:28:30.498Z,98509.31
2022-09-14T15:31:08.493Z,98520.13
2022-09-14T15:33:55.945Z,98499.28
2022-09-14T15:36:43.907Z,98452.38
2022-09-14T15:39:37.259Z,98419.47
2022-09-14T15:42:11.082Z,98521.03
2022-09-14T15:44:42.226Z,98491.94
2022-09-14T15:47:17.634Z,98453.06
2022-09-14T15:49:48.220Z,98479.69
2022-09-14T15:52:24.073Z,98454.75
2022-09-14T15:54:52.682Z,98479.22
2022-09-14T15:57:22.965Z,98437.72
2022-09-14T15:59:52.767Z,98515.13
2022-09-14T16:02:33.012Z,98511.00
2022-09-14T16:05:05.314Z,98477.25
2022-09-14T16:07:38.927Z,98446.78
2022-09-14T16:10:11.464Z,98461.84
2022-09-14T16:12:44.425Z,98496.56
2022-09-14T16:15:13.280Z,98507.88
2022-09-14T16:18:25.622Z,98491.53
2022-09-14T16:21:12.633Z,98464.69
2022-09-14T16:26:59.892Z,98473.81
2022-09-14T16:29:29.673Z,98456.94
2022-09-14T16:32:01.509Z,98454.50
2022-09-14T16:34:36.067Z,98392.41
2022-09-14T16:37:12.662Z,98488.69
2022-09-14T16:39:50.825Z,98437.84
2022-09-14T16:42:20.296Z,98422.63
2022-09-14T16:44:56.344Z,98403.94
2022-09-14T16:50:37.431Z,98370.41
2022-09-14T16:53:10.605Z,98477.78
2022-09-14T16:55:40.268Z,98478.63
2022-09-14T16:58:32.515Z,98470.88
2022-09-14T17:01:10.909Z,98375.47
2022-09-14T17:03:47.709Z,98398.25
2022-09-14T17:06:24.040Z,98397.16
2022-09-14T17:09:04.998Z,98461.63
2022-09-14T17:11:48.050Z,98410.41
2022-09-14T17:14:42.512Z,98462.72
2022-09-14T17:17:20.821Z,98431.41
2022-09-14T17:19:53.915Z,98462.00
2022-09-14T17:22:25.433Z,98458.50
2022-09-14T17:24:55.725Z,98357.34
2022-09-14T17:27:27.597Z,98455.53
2022-09-14T17:29:59.515Z,98460.63
2022-09-14T17:32:37.592Z,98425.25
2022-09-14T17:35:14.494Z,98411.03
2022-09-14T17:38:01.388Z,98412.19
2022-09-14T17:40:40.020Z,98461.25
2022-09-14T17:43:08.581Z,98390.13
2022-09-14T17:45:59.347Z,98424.22
2022-09-14T17:51:36.114Z,98426.41
2022-09-14T17:54:17.032Z,98408.50
2022-09-14T17:56:50.105Z,98398.94
2022-09-14T17:59:27.951Z,98326.91
2022-09-14T18:02:03.333Z,98433.47
2022-09-14T18:04:47.877Z,98415.28
2022-09-14T18:07:19.690Z,98446.72
2022-09-14T18:09:49.342Z,98435.09
2022-09-14T18:12:32.269Z,98441.22
2022-09-14T18:15:06.629Z,98306.72
2022-09-14T18:17:40.729Z,98397.31
2022-09-14T18:24:18.296Z,98440.69
2022-09-14T18:26:50.638Z,98393.41
2022-09-14T18:29:34.748Z,98410.25
2022-09-14T18:32:04.388Z,98385.91
2022-09-14T18:34:37.934Z,98362.75
2022-09-14T18:37:10.210Z,98379.25
2022-09-14T18:39:44.937Z,98408.28
2022-09-14T18:42:32.079Z,98333.00
2022-09-14T18:45:48.453Z,98352.47
2022-09-14T18:48:23.089Z,98409.41
2022-09-14T18:50:55.047Z,98402.59
2022-09-14T18:53:25.854Z,98402.50
2022-09-14T18:55:59.782Z,98381.13
2022-09-14T18:58:53.937Z,98366.66
2022-09-14T19:02:09.057Z,98359.19
2022-09-14T19:04:56.014Z,98433.13
2022-09-14T19:08:07.629Z,98321.25
2022-09-14T19:10:43.164Z,98400.34
2022-09-14T19:13:36.700Z,98408.44
2022-09-14T19:16:17.664Z,98354.53
2022-09-14T19:18:56.437Z,98342.91
2022-09-14T19:21:31.372Z,98282.88
2022-09-14T19:24:14.965Z,98379.31
2022-09-14T19:26:51.188Z,98401.19
2022-09-14T19:29:29.781Z,98370.72
2022-09-14T19:32:12.397Z,98268.41
2022-09-14T19:34:49.134Z,98343.50
2022-09-14T19:37:19.797Z,98382.75
2022-09-14T19:39:57.704Z,98255.28
2022-09-14T19:42:49.594Z,98380.97
2022-09-14T19:45:37.499Z,98255.72
2022-09-14T19:54:12.272Z,98373.78
2022-09-14T19:57:06.746Z,98250.69
2022-09-14T19:59:52.732Z,98309.22
2022-09-14T20:02:46.391Z,98358.03
2022-09-14T20:05:20.493Z,98272.66
2022-09-14T20:08:06.419Z,98238.31
2022-09-14T20:10:40.859Z,98373.19
2022-09-14T20:13:16.000Z,98368.88
2022-09-14T20:15:46.759Z,98360.41
2022-09-14T20:18:19.025Z,98368.88
2022-09-14T20:21:11.683Z,98323.59
2022-09-14T20:24:17.391Z,98321.47
2022-09-14T20:27:06.747Z,98375.94
2022-09-14T20:30:07.728Z,98239.56
2022-09-14T20:32:41.828Z,98346.03
2022-09-14T20:35:19.429Z,98372.03
2022-09-14T20:37:54.028Z,98371.28
2022-09-14T20:40:39.458Z,98358.69
2022-09-14T20:43:11.448Z,98371.22
2022-09-14T20:45:41.775Z,98288.94
2022-09-14T20:48:32.971Z,98238.50
2022-09-14T20:51:21.571Z,98317.75
2022-09-14T20:54:05.523Z,98360.25
2022-09-14T20:57:10.649Z,98222.09
2022-09-14T21:02:57.290Z,98334.81
2022-09-14T21:05:57.899Z,98236.78
2022-09-14T21:08:41.858Z,98366.50
2022-09-14T21:11:35.008Z,98353.34
2022-09-14T21:14:13.721Z,98342.13
2022-09-14T21:16:52.616Z,98232.31
2022-09-14T21:19:25.541Z,98230.66
2022-09-14T21:22:10.446Z,98220.13
2022-09-14T21:24:42.329Z,98337.00
2022-09-14T21:27:17.632Z,98338.06
2022-09-14T21:29:48.739Z,98272.41
2022-09-14T21:32:17.584Z,98330.81
2022-09-14T21:35:03.255Z,98323.81
2022-09-14T21:37:36.431Z,98194.25
2022-09-14T21:40:07.188Z,98329.84
2022-09-14T21:42:37.501Z,98304.00
2022-09-14T21:45:10.824Z,98207.78
2022-09-14T21:47:47.542Z,98274.66
2022-09-14T21:50:20.338Z,98220.03
2022-09-14T21:52:55.760Z,98325.06
2022-09-14T21:55:26.882Z,98226.25
2022-09-14T22:00:49.830Z,98220.34
2022-09-14T22:03:20.554Z,98318.53
2022-09-14T22:05:58.788Z,98316.94
2022-09-14T22:08:29.213Z,98292.25
2022-09-14T22:11:02.004Z,98295.78
2022-09-14T22:13:34.882Z,98261.97
2022-09-14T22:16:16.570Z,98234.25
2022-09-14T22:19:02.307Z,98179.25
2022-09-14T22:21:39.921Z,98195.78
2022-09-14T22:24:14.819Z,98165.34
2022-09-14T22:26:52.061Z,98279.41
2022-09-14T22:29:22.811Z,98175.41
2022-09-14T22:31:58.710Z,98278.50
2022-09-14T22:34:30.418Z,98274.31
2022-09-14T22:37:00.608Z,98169.31
2022-09-14T22:39:40.220Z,98274.06
2022-09-14T22:42:11.293Z,98259.91
2022-09-14T22:44:42.714Z,98275.84
2022-09-14T22:47:14.322Z,98176.66
2022-09-14T22:49:48.806Z,98269.06
2022-09-14T22:52:22.673Z,98229.19
2022-09-14T22:54:51.515Z,98145.63
2022-09-14T22:57:24.288Z,98263.75
2022-09-14T23:00:00.448Z,98255.84
2022-09-14T23:02:38.468Z,98153.69
2022-09-14T23:05:13.002Z,98257.97
2022-09-14T23:07:47.396Z,98217.22
2022-09-14T23:10:23.926Z,98212.09
2022-09-14T23:12:52.550Z,98208.66
2022-09-14T23:15:23.935Z,98109.84
2022-09-14T23:17:58.207Z,98247.41
2022-09-14T23:20:29.441Z,98248.16
2022-09-14T23:23:01.036Z,98187.22
2022-09-14T23:25:37.752Z,98119.75
2022-09-14T23:28:13.939Z,98119.59
2022-09-14T23:30:42.489Z,98245.47
2022-09-14T23:33:12.479Z,98151.91
2022-09-14T23:35:48.263Z,98180.41
2022-09-14T23:38:18.861Z,98158.53
2022-09-14T23:40:47.381Z,98215.13
2022-09-14T23:43:15.879Z,98247.41
2022-09-14T23:45:45.408Z,98238.81
2022-09-14T23:48:18.157Z,98232.75
2022-09-14T23:50:46.613Z,98196.44
2022-09-14T23:53:15.013Z,98231.25
2022-09-14T23:55:44.049Z,98243.16
2022-09-14T23:58:16.974Z,98240.44
